Flight Track Log - Related Links

Times and Time Zones

All times are in EDT time to prevent confusion due to time zone crossing. See the EGF3764 flight status page for this flight to view local times or setup timezone preferences in your user account.

Time Position Orientation Groundspeed Altitude Reporting Facility
EDT Latitude Longitude Course Direction KTS MPH feet Rate Location/Type
Sat 11:44:20 AM 42.0000 -87.9333 261° West 157 181 1,400  Level Chicago TRACON
Sat 11:45:20 AM 42.0000 -88.0000 270° West 183 211 3,000 2,000 Climbing Chicago TRACON
Sat 11:46:00 AM 41.9333 -88.3205 270° West  Level FlightAware Approximate
Sat 11:46:14 AM 42.0000 -88.0667 270° West 225 259 5,200  Level Chicago TRACON
Sat 11:47:00 AM 41.9167 -88.4607 270° West  Level FlightAware Approximate
Sat 11:47:08 AM 42.0017 -88.1464 272° West 219 252 7,800  Level Chicago Center
Sat 11:48:00 AM 41.9008 -88.6022 261° West  Level FlightAware Approximate
Sat 11:48:10 AM 41.9994 -88.2389 268° West 244 281 10,400  Level Chicago Center
Sat 11:49:00 AM 41.8841 -88.7436 261° West  Level FlightAware Approximate
Sat 11:49:12 AM 41.9881 -88.3311 261° West 253 291 12,900  Level Chicago Center
Sat 11:50:13 AM 41.9681 -88.4250 254° West 260 299 15,300 1,854 Climbing Chicago Center
Sat 11:51:15 AM 41.9469 -88.5275 255° West 281 323 16,700 1,500 Climbing Chicago Center
Sat 11:52:17 AM 41.9211 -88.6683 256° West 323 372 18,400 1,463 Climbing Chicago Center
Sat 11:53:18 AM 41.8989 -88.7939 257° West 344 396 19,700 1,415 Climbing Chicago Center
Sat 11:54:20 AM 41.8781 -88.9244 258° West 357 411 21,300 1,366 Climbing Chicago Center
Sat 11:55:21 AM 41.8511 -89.0558 255° West 368 423 22,500 1,268 Climbing Chicago Center
Sat 11:56:23 AM 41.8247 -89.1872 255° West 370 426 23,900 1,306 Climbing Chicago Center
Sat 11:57:25 AM 41.8139 -89.3256 264° West 374 430 25,200 1,415 Climbing Chicago Center
Sat 11:58:26 AM 41.8072 -89.4922 267° West 377 434 26,800 1,463 Climbing Chicago Center
Sat 11:59:28 AM 41.8003 -89.6289 266° West 372 428 28,200 1,317 Climbing Chicago Center
Sat 12:00:29 PM 41.7953 -89.7497 267° West 369 425 29,500 1,171 Climbing Chicago Center
Sat 12:01:31 PM 41.7889 -89.8850 266° West 365 420 30,600 1,161 Climbing Chicago Center
Sat 12:02:33 PM 41.7811 -90.0464 266° West 365 420 31,900 1,171 Climbing Chicago Center
Sat 12:03:34 PM 41.7739 -90.1792 266° West 361 415 33,000 976 Climbing Chicago Center
Sat 12:04:36 PM 41.7664 -90.3136 266° West 365 420 33,900 774 Climbing Chicago Center
Sat 12:05:38 PM 41.7592 -90.4456 266° West 360 414 34,600 683 Climbing Chicago Center
Sat 12:06:39 PM 41.7517 -90.5786 266° West 359 413 35,300 585 Climbing Chicago Center
Sat 12:07:41 PM 41.7442 -90.7161 266° West 361 415 35,800 339 Climbing Chicago Center
Sat 12:08:43 PM 41.7375 -90.8519 266° West 365 420 36,000 98 Climbing Chicago Center
Sat 12:09:44 PM 41.7283 -90.9942 265° West 378 435 36,000  Level Chicago Center
Sat 12:10:46 PM 41.7181 -91.1683 266° West 390 449 36,000  Level Chicago Center
Sat 12:11:48 PM 41.7094 -91.3172 266° West 402 463 36,000  Level Chicago Center
Sat 12:12:49 PM 41.7003 -91.4669 265° West 405 466 36,000  Level Chicago Center
Sat 12:13:51 PM 41.6908 -91.6164 265° West 407 468 36,000  Level Chicago Center
Sat 12:14:53 PM 41.6806 -91.7681 265° West 410 472 36,000  Level Chicago Center
Sat 12:15:54 PM 41.6706 -91.9197 265° West 411 473 36,000  Level Chicago Center
Sat 12:16:56 PM 41.6581 -92.1006 265° West 408 470 36,000  Level Chicago Center
Sat 12:17:58 PM 41.6478 -92.2486 265° West 407 468 36,000  Level Chicago Center
Sat 12:19:00 PM 41.6372 -92.3969 265° West 404 465 36,000  Level Chicago Center
Sat 12:20:01 PM 41.6278 -92.5458 265° West 404 465 36,000  Level Chicago Center
Sat 12:21:02 PM 41.6183 -92.6858 265° West 403 464 36,000  Level Minneapolis Center
Sat 12:22:04 PM 41.6044 -92.8614 264° West 402 463 36,000  Level Minneapolis Center
Sat 12:23:05 PM 41.5936 -93.0092 264° West 402 463 36,000  Level Minneapolis Center
Sat 12:24:07 PM 41.5817 -93.1578 264° West 405 466 36,000  Level Minneapolis Center
Sat 12:25:08 PM 41.5697 -93.3036 264° West 401 461 36,000  Level Minneapolis Center
Sat 12:26:10 PM 41.5592 -93.4528 265° West 405 466 36,000  Level Minneapolis Center
Sat 12:27:12 PM 41.5433 -93.6306 263° West 407 468 36,000  Level Minneapolis Center
Sat 12:28:13 PM 41.5328 -93.7750 264° West 403 464 36,000  Level Minneapolis Center
Sat 12:29:15 PM 41.5219 -93.9233 264° West 406 467 36,000  Level Minneapolis Center
Sat 12:30:29 PM 41.5056 -94.1008 263° West 406 467 36,000  Level Minneapolis Center
Sat 12:31:31 PM 41.4922 -94.2586 264° West 410 472 36,000  Level Minneapolis Center
Sat 12:32:33 PM 41.4786 -94.4081 263° West 407 468 36,000  Level Minneapolis Center
Sat 12:33:34 PM 41.4650 -94.5592 263° West 410 472 36,000  Level Minneapolis Center
Sat 12:34:36 PM 41.4522 -94.7086 264° West 407 468 36,000  Level Minneapolis Center
Sat 12:35:38 PM 41.4347 -94.8889 263° West 407 468 36,000  Level Minneapolis Center
Sat 12:36:40 PM 41.4219 -95.0389 264° West 406 467 36,000  Level Minneapolis Center
Sat 12:37:41 PM 41.4075 -95.1892 263° West 409 471 36,000  Level Minneapolis Center
Sat 12:38:45 PM 41.3922 -95.3400 262° West 411 473 36,000  Level Minneapolis Center
Sat 12:39:47 PM 41.3767 -95.4889 262° West 408 470 36,000  Level Minneapolis Center
Sat 12:40:49 PM 41.3617 -95.6581 263° West 417 480 36,000  Level Minneapolis Center
Sat 12:41:51 PM 41.3461 -95.8097 262° West 415 478 36,000  Level Minneapolis Center
Sat 12:42:53 PM 41.3317 -95.9606 263° West 412 474 36,000  Level Minneapolis Center
Sat 12:43:54 PM 41.3167 -96.1119 263° West 413 475 36,000  Level Minneapolis Center
Sat 12:44:56 PM 41.2967 -96.2956 262° West 418 481 36,000  Level Minneapolis Center
Sat 12:45:58 PM 41.2803 -96.4450 262° West 415 478 36,000  Level Minneapolis Center
Sat 12:47:00 PM 41.2639 -96.5967 262° West 415 478 36,000  Level Minneapolis Center
Sat 12:48:02 PM 41.2475 -96.7483 262° West 417 480 36,000  Level Minneapolis Center
Sat 12:49:04 PM 41.2306 -96.9006 262° West 415 478 36,000  Level Minneapolis Center
Sat 12:50:05 PM 41.2133 -97.0539 262° West 420 483 36,000  Level Minneapolis Center
Sat 12:51:07 PM 41.1958 -97.2072 261° West 420 483 36,000  Level Minneapolis Center
Sat 12:52:09 PM 41.1744 -97.3939 261° West 421 484 36,000  Level Minneapolis Center
Sat 12:53:11 PM 41.1567 -97.5467 261° West 420 483 36,000  Level Minneapolis Center
Sat 12:54:13 PM 41.1389 -97.7014 261° West 423 487 36,000  Level Minneapolis Center
Sat 12:55:14 PM 41.1206 -97.8544 261° West 421 484 36,000  Level Minneapolis Center
Sat 12:56:16 PM 41.1017 -98.0089 261° West 423 487 36,000  Level Minneapolis Center
Sat 12:57:18 PM 41.0831 -98.1636 261° West 424 488 36,000  Level Minneapolis Center
Sat 12:58:20 PM 41.0644 -98.3183 261° West 424 488 36,000  Level Minneapolis Center
Sat 12:59:21 PM 41.0439 -98.4997 262° West 426 490 36,000  Level Minneapolis Center
Sat 01:00:23 PM 41.0269 -98.6542 262° West 425 489 36,000  Level Minneapolis Center
Sat 01:01:25 PM 41.0083 -98.8106 261° West 429 494 36,000  Level Minneapolis Center
Sat 01:02:27 PM 40.9881 -98.9664 260° West 430 495 36,000  Level Minneapolis Center
Sat 01:03:28 PM 40.9639 -99.1394 260° West 430 495 36,000  Level Minneapolis Center
Sat 01:04:21 PM 40.9469 -99.2625 260° West 426 490 36,000  Level Denver Center
Sat 01:05:23 PM 40.9247 -99.4186 259° West 429 494 36,000  Level Denver Center
Sat 01:06:25 PM 40.9022 -99.5753 259° West 433 498 36,000  Level Denver Center
Sat 01:07:27 PM 40.8794 -99.7314 259° West 433 498 36,000  Level Denver Center
Sat 01:08:29 PM 40.8525 -99.9172 259° West 437 503 36,000  Level Denver Center
Sat 01:09:31 PM 40.8292 -100.0681 258° West 438 504 36,000  Level Denver Center
Sat 01:10:33 PM 40.8036 -100.2447 259° West 439 505 36,000  Level Denver Center
Sat 01:11:35 PM 40.7811 -100.3958 259° West 439 505 36,000  Level Denver Center
Sat 01:12:37 PM 40.7578 -100.5478 259° West 439 505 36,000  Level Denver Center
Sat 01:13:39 PM 40.7292 -100.7278 258° West 440 506 36,000  Level Denver Center
Sat 01:14:41 PM 40.7047 -100.8850 258° West 447 514 36,000  Level Denver Center
Sat 01:15:43 PM 40.6775 -101.0650 259° West 447 514 36,000  Level Denver Center
Sat 01:16:45 PM 40.6528 -101.2183 258° West 446 513 36,000  Level Denver Center
Sat 01:17:47 PM 40.6286 -101.3714 258° West 447 514 36,000  Level Denver Center
Sat 01:18:49 PM 40.5992 -101.5506 258° West 448 516 36,000  Level Denver Center
Sat 01:19:51 PM 40.5739 -101.7053 258° West 451 519 36,000 -97 Level Denver Center
Sat 01:20:53 PM 40.5436 -101.8869 258° West 455 524 35,800 -726 Descending Denver Center
Sat 01:21:55 PM 40.5183 -102.0464 258° West 465 535 34,500 -871 Descending Denver Center
Sat 01:22:57 PM 40.4878 -102.2214 257° West 440 506 34,000 -242 Descending Denver Center
Sat 01:23:59 PM 40.4628 -102.3717 258° West 441 507 34,000  Level Denver Center
Sat 01:25:01 PM 40.4322 -102.5503 257° West 448 516 34,000 -774 Level Denver Center
Sat 01:26:03 PM 40.4058 -102.7053 257° West 454 522 32,400 -1,935 Descending Denver Center
Sat 01:27:05 PM 40.3750 -102.8808 257° West 444 511 30,000 -2,129 Descending Denver Center
Sat 01:28:07 PM 40.3486 -103.0294 257° West 438 504 28,000 -2,032 Descending Denver Center
Sat 01:29:09 PM 40.3175 -103.1992 257° West 432 497 25,800 -1,887 Descending Denver Center
Sat 01:30:11 PM 40.2919 -103.3436 257° West 427 491 24,100 -1,742 Descending Denver Center
Sat 01:31:13 PM 40.2639 -103.4989 257° West 423 487 22,200 -1,742 Descending Denver Center
Sat 01:32:15 PM 40.2381 -103.6422 257° West 423 487 20,500 -1,742 Descending Denver Center
Sat 01:33:17 PM 40.2106 -103.8022 257° West 418 481 18,600 -1,500 Descending Denver Center
Sat 01:34:19 PM 40.2081 -103.9350 269° West 343 395 17,400 -1,268 Descending Denver Center
Sat 01:35:20 PM 40.2172 -104.0297 277° West 342 394 16,000 -1,659 Descending Denver Center
Sat 01:36:22 PM 40.2292 -104.1597 277° West 335 386 14,000 -1,790 Descending Denver Center
Sat 01:37:24 PM 40.2408 -104.2783 277° West 332 382 12,300 -1,488 Descending Denver Center
Sat 01:38:27 PM 40.2553 -104.4333 277° West 330 380 10,900 -1,152 Descending Denver Center
Sat 01:39:29 PM 40.2594 -104.5361 273° West 294 338 9,900 -919 Descending Denver Center
Sat 01:40:31 PM 40.2067 -104.6011 223° Southwest 285 328 9,000 -435 Descending Denver Center
Sat 01:41:33 PM 40.1422 -104.6361 203° Southwest 221 254 9,000  Level Denver Center
Sat 01:42:35 PM 40.0922 -104.6644 203° Southwest 198 228 9,000 -435 Level Denver Center
Sat 01:43:37 PM 40.0433 -104.6833 196° South 173 199 8,100 -871 Descending Denver Center

Login

Don't have an account? Register now (free) for customized features, flight alerts, and more!